createdAt,value
2018-09-01T00:00:32.328Z,17.00
2018-09-01T00:03:01.809Z,16.90
2018-09-01T00:05:31.238Z,16.90
2018-09-01T00:08:00.705Z,16.90
2018-09-01T00:10:30.143Z,16.90
2018-09-01T00:12:59.503Z,16.90
2018-09-01T00:15:29.009Z,16.90
2018-09-01T00:20:43.031Z,16.80
2018-09-01T00:23:12.525Z,16.80
2018-09-01T00:25:42.225Z,16.80
2018-09-01T00:28:11.691Z,16.80
2018-09-01T00:30:41.195Z,16.70
2018-09-01T00:33:10.696Z,16.70
2018-09-01T00:35:40.142Z,16.70
2018-09-01T00:38:14.612Z,16.80
2018-09-01T00:40:44.116Z,16.80
2018-09-01T00:43:13.595Z,16.70
2018-09-01T00:45:43.075Z,16.80
2018-09-01T00:48:12.604Z,16.80
2018-09-01T00:50:42.032Z,16.90
2018-09-01T00:53:11.473Z,16.80
2018-09-01T00:55:40.853Z,16.70
2018-09-01T00:58:10.343Z,16.80
2018-09-01T01:00:39.735Z,16.80
2018-09-01T01:03:09.204Z,16.80
2018-09-01T01:05:38.623Z,16.70
2018-09-01T01:08:08.020Z,16.70
2018-09-01T01:10:37.414Z,16.60
2018-09-01T01:13:06.819Z,16.50
2018-09-01T01:15:36.280Z,16.50
2018-09-01T01:18:05.780Z,16.50
2018-09-01T01:20:35.169Z,16.60
2018-09-01T01:23:04.621Z,16.60
2018-09-01T01:25:33.994Z,16.60
2018-09-01T01:28:03.423Z,16.60
2018-09-01T01:30:32.822Z,16.60
2018-09-01T01:33:02.241Z,16.60
2018-09-01T01:35:31.639Z,16.60
2018-09-01T01:38:01.091Z,16.60
2018-09-01T01:40:30.542Z,16.60
2018-09-01T01:43:00.002Z,16.50
2018-09-01T01:45:30.447Z,16.50
2018-09-01T01:48:00.099Z,16.50
2018-09-01T01:50:29.485Z,16.50
2018-09-01T01:52:58.933Z,16.60
2018-09-01T01:55:28.426Z,16.60
2018-09-01T01:57:57.799Z,16.70
2018-09-01T02:00:27.323Z,16.70
2018-09-01T02:02:56.807Z,16.60
2018-09-01T02:05:31.287Z,16.60
2018-09-01T02:08:00.720Z,16.70
2018-09-01T02:10:30.170Z,16.60
2018-09-01T02:12:59.533Z,16.50
2018-09-01T02:15:28.954Z,16.50
2018-09-01T02:17:58.510Z,16.50
2018-09-01T02:20:27.960Z,16.40
2018-09-01T02:22:57.379Z,16.40
2018-09-01T02:25:27.261Z,16.30
2018-09-01T02:27:56.713Z,16.30
